Time;durP1;ratioP1;P1;durP2;ratioP2;P2;SDS_P1;SDS_P2;PMS_P1;PMS_P2;Temp;Humidity;BMP_temperature;BMP_pressure;BME280_temperature;BME280_humidity;BME280_pressure;Samples;Min_cycle;Max_cycle;Signal;HPM_P1;HPM_P2
2022/03/28 03:00:32;;;;;;;3.95;2.80;;;18.20;47.80;;;;;;6061370;23;46265;31
2022/03/28 03:02:57;;;;;;;3.92;2.72;;;18.20;47.80;;;;;;4877300;29;45623;-57
2022/03/28 03:05:23;;;;;;;3.03;2.67;;;18.20;47.80;;;;;;4892967;28;45230;-56
2022/03/28 03:07:52;;;;;;;2.72;2.45;;;18.20;47.80;;;;;;4890678;28;45295;-56
2022/03/28 03:10:17;;;;;;;4.03;2.60;;;18.20;47.80;;;;;;4878976;28;45744;-58
2022/03/28 03:12:43;;;;;;;2.72;2.03;;;18.20;47.80;;;;;;4892676;28;45511;-54
2022/03/28 03:15:09;;;;;;;4.05;2.60;;;18.20;47.80;;;;;;4922839;28;45741;-57
2022/03/28 03:17:36;;;;;;;2.97;2.55;;;18.20;47.80;;;;;;4895105;28;45689;-58
2022/03/28 03:20:03;;;;;;;4.55;3.03;;;18.20;47.90;;;;;;4896832;28;45587;-56
2022/03/28 03:22:28;;;;;;;3.70;2.90;;;18.20;47.80;;;;;;4900437;28;45315;-57
2022/03/28 03:24:54;;;;;;;2.72;2.50;;;18.20;47.80;;;;;;4889715;28;45466;-55
2022/03/28 03:27:20;;;;;;;3.67;2.90;;;18.10;47.70;;;;;;4896432;28;44766;-55
2022/03/28 03:29:47;;;;;;;3.25;2.70;;;18.20;47.70;;;;;;4903236;28;45088;-56
2022/03/28 03:32:13;;;;;;;5.60;3.20;;;18.10;47.70;;;;;;4893983;28;46016;-56
2022/03/28 03:34:39;;;;;;;3.20;2.38;;;18.20;47.80;;;;;;4877563;28;45161;-56
2022/03/28 03:37:05;;;;;;;3.47;2.67;;;18.20;47.70;;;;;;4910931;28;45244;-56
2022/03/28 03:39:30;;;;;;;4.00;3.10;;;18.10;47.70;;;;;;4889482;28;45179;-53
2022/03/28 03:41:56;;;;;;;3.28;2.97;;;18.10;47.70;;;;;;4899108;28;45985;-56
2022/03/28 03:44:21;;;;;;;3.28;2.72;;;18.10;47.70;;;;;;4898566;28;45180;-56
2022/03/28 03:46:47;;;;;;;3.40;2.80;;;18.10;47.70;;;;;;4897202;28;45466;-55
2022/03/28 03:49:13;;;;;;;3.88;2.90;;;18.10;47.70;;;;;;4912154;28;46427;-54
2022/03/28 03:51:39;;;;;;;4.00;2.80;;;18.10;47.70;;;;;;4901136;28;45872;-56
2022/03/28 03:54:05;;;;;;;3.25;2.80;;;18.10;47.70;;;;;;4898719;28;45484;-57
2022/03/28 03:56:31;;;;;;;3.50;2.80;;;18.10;47.70;;;;;;4910388;28;45628;-56
2022/03/28 03:58:56;;;;;;;3.38;2.75;;;18.10;48.30;;;;;;4896673;28;46329;-54
2022/03/28 04:01:22;;;;;;;3.47;2.63;;;18.10;47.70;;;;;;4904333;28;46927;-56
2022/03/28 04:03:48;;;;;;;3.55;2.53;;;18.10;47.70;;;;;;4883559;28;45396;-56
2022/03/28 04:06:13;;;;;;;3.47;2.53;;;18.10;47.70;;;;;;4915624;28;45338;-57
2022/03/28 04:08:39;;;;;;;4.82;3.00;;;18.10;47.70;;;;;;4917831;28;45431;-56
2022/03/28 04:11:05;;;;;;;3.33;2.78;;;18.10;47.70;;;;;;4912165;28;45143;-56
2022/03/28 04:13:32;;;;;;;3.10;2.70;;;18.10;47.70;;;;;;4916156;28;45623;-56
2022/03/28 04:15:57;;;;;;;4.10;2.70;;;18.10;47.70;;;;;;4922096;28;45616;-54
2022/03/28 04:18:25;;;;;;;2.95;2.53;;;18.00;47.70;;;;;;4916281;28;45623;-61
2022/03/28 04:20:52;;;;;;;3.80;2.55;;;18.00;47.60;;;;;;4916435;28;46193;-57
2022/03/28 04:23:18;;;;;;;3.38;2.58;;;18.00;47.60;;;;;;4896088;28;45453;-55
2022/03/28 04:25:43;;;;;;;3.50;2.72;;;18.00;47.60;;;;;;4917902;28;45458;-56
2022/03/28 04:28:09;;;;;;;3.85;2.70;;;18.00;47.60;;;;;;4917573;28;45587;-57
2022/03/28 04:30:35;;;;;;;3.13;2.80;;;18.00;47.60;;;;;;4914582;28;45661;-57
2022/03/28 04:33:02;;;;;;;2.80;2.50;;;18.00;47.60;;;;;;4931162;28;45401;-55
2022/03/28 04:35:28;;;;;;;4.47;2.80;;;18.00;47.60;;;;;;4916002;28;45233;-54
2022/03/28 04:37:54;;;;;;;3.10;2.38;;;18.00;47.60;;;;;;4941879;22;45429;-57
2022/03/28 04:40:19;;;;;;;2.83;2.47;;;18.00;47.60;;;;;;4936976;28;45507;-54
2022/03/28 04:42:48;;;;;;;3.13;2.67;;;18.00;47.60;;;;;;4930704;28;45423;-56
2022/03/28 04:45:14;;;;;;;2.47;2.10;;;18.00;47.60;;;;;;4922508;28;45579;-55
2022/03/28 04:47:40;;;;;;;2.97;2.50;;;18.00;47.60;;;;;;4904171;28;45036;-57
2022/03/28 04:50:08;;;;;;;3.05;2.60;;;18.00;47.60;;;;;;4918653;28;46148;-55
2022/03/28 04:52:34;;;;;;;4.20;2.75;;;18.00;47.70;;;;;;4933369;28;45550;-56
2022/03/28 04:55:00;;;;;;;3.30;2.72;;;18.00;47.60;;;;;;4937227;28;45183;-55
2022/03/28 04:57:25;;;;;;;3.28;2.63;;;18.00;47.60;;;;;;4937091;28;44998;-55
2022/03/28 04:59:51;;;;;;;2.70;2.50;;;18.00;47.60;;;;;;4920729;28;46948;-56
2022/03/28 05:02:16;;;;;;;3.13;2.80;;;18.00;47.60;;;;;;4901041;28;45102;-55
2022/03/28 05:04:42;;;;;;;3.33;2.60;;;18.00;47.60;;;;;;4937570;28;45447;-57
2022/03/28 05:07:08;;;;;;;3.75;2.83;;;17.90;47.60;;;;;;4944692;28;44810;-54
2022/03/28 05:09:33;;;;;;;4.15;2.40;;;18.00;47.60;;;;;;4932143;28;45393;-58
2022/03/28 05:11:59;;;;;;;3.00;2.70;;;17.90;47.60;;;;;;4941825;28;45535;-56
2022/03/28 05:14:25;;;;;;;3.22;2.75;;;17.90;47.60;;;;;;4943180;28;45287;-54
2022/03/28 05:16:50;;;;;;;3.17;2.85;;;17.90;47.60;;;;;;4919944;28;44658;-55
2022/03/28 05:19:16;;;;;;;3.53;2.53;;;17.90;47.50;;;;;;4925739;28;45372;-53
2022/03/28 05:21:42;;;;;;;3.45;2.50;;;17.90;47.50;;;;;;4920086;28;45345;-55
2022/03/28 05:24:07;;;;;;;2.80;2.50;;;17.90;47.50;;;;;;4937776;28;45070;-53
2022/03/28 05:26:33;;;;;;;2.85;2.53;;;17.90;47.50;;;;;;4936605;28;44990;-55
2022/03/28 05:28:58;;;;;;;4.53;2.70;;;17.90;47.60;;;;;;4925385;28;46062;-58
2022/03/28 05:31:24;;;;;;;3.10;2.35;;;17.90;47.50;;;;;;4901984;28;45439;-54
2022/03/28 05:33:50;;;;;;;3.63;3.00;;;17.90;47.50;;;;;;4938025;28;44823;-56
2022/03/28 05:36:15;;;;;;;3.22;2.60;;;17.90;47.50;;;;;;4945399;28;45452;-57
2022/03/28 05:38:42;;;;;;;3.25;2.83;;;17.90;47.50;;;;;;4939253;28;46170;-59
2022/03/28 05:41:08;;;;;;;4.25;3.10;;;17.90;47.50;;;;;;4923403;28;45128;-56
2022/03/28 05:43:34;;;;;;;3.70;2.50;;;17.90;47.50;;;;;;4945582;28;45258;-56
2022/03/28 05:46:00;;;;;;;4.00;3.00;;;17.90;47.50;;;;;;4932746;28;45596;-56
2022/03/28 05:48:26;;;;;;;5.15;3.03;;;18.00;47.50;;;;;;4945483;28;46561;-56
2022/03/28 05:50:51;;;;;;;3.75;2.70;;;18.00;47.50;;;;;;4938884;28;45215;-58
2022/03/28 05:53:17;;;;;;;3.20;2.70;;;18.00;47.40;;;;;;4940403;28;45228;-54
2022/03/28 05:55:43;;;;;;;3.63;3.00;;;18.00;47.30;;;;;;4937355;28;45509;-56
2022/03/28 05:58:09;;;;;;;3.15;2.70;;;18.00;47.30;;;;;;4938832;28;46277;-57
2022/03/28 06:00:36;;;;;;;8.00;2.55;;;18.10;47.30;;;;;;4906709;28;45259;-56
2022/03/28 06:03:02;;;;;;;3.58;2.72;;;18.10;47.30;;;;;;4954520;28;45133;-57
2022/03/28 06:05:27;;;;;;;6.43;2.58;;;18.20;47.30;;;;;;4937738;28;45510;-53
2022/03/28 06:07:53;;;;;;;3.63;2.80;;;18.30;47.10;;;;;;4939662;28;46037;-57
2022/03/28 06:10:19;;;;;;;2.83;2.42;;;18.30;47.00;;;;;;4942929;28;45004;-58
2022/03/28 06:12:44;;;;;;;3.60;2.58;;;18.50;46.90;;;;;;4947478;28;45283;-58
2022/03/28 06:15:10;;;;;;;3.95;2.30;;;18.60;46.70;;;;;;4945173;28;45660;-59
2022/03/28 06:17:35;;;;;;;3.25;2.28;;;18.80;46.50;;;;;;4922340;28;45845;-57
2022/03/28 06:20:05;;;;;;;2.63;2.08;;;18.90;46.40;;;;;;4938472;28;45463;-57
2022/03/28 06:22:30;;;;;;;2.85;2.30;;;19.00;46.20;;;;;;4927274;28;44760;-57
2022/03/28 06:24:56;;;;;;;3.60;2.30;;;19.20;46.20;;;;;;4912226;28;45282;-55
2022/03/28 06:27:24;;;;;;;3.20;2.40;;;19.30;46.10;;;;;;4938764;28;46306;-60
2022/03/28 06:29:52;;;;;;;5.53;2.67;;;19.40;46.00;;;;;;4922623;28;44720;-59
2022/03/28 06:32:18;;;;;;;3.30;2.20;;;19.50;45.90;;;;;;4952640;28;45550;-58
2022/03/28 06:34:44;;;;;;;4.57;2.15;;;19.60;45.80;;;;;;4919607;28;44677;-59
2022/03/28 06:37:09;;;;;;;2.50;1.75;;;19.70;45.60;;;;;;4944053;28;45184;-62
2022/03/28 06:39:36;;;;;;;4.35;1.92;;;19.90;45.40;;;;;;4939115;28;44904;-57
2022/03/28 06:42:03;;;;;;;2.17;1.85;;;20.00;45.30;;;;;;4942311;28;44985;-58
2022/03/28 06:44:30;;;;;;;2.83;2.40;;;20.20;45.20;;;;;;4943851;28;45046;-58
2022/03/28 06:46:56;;;;;;;2.05;1.85;;;20.30;45.20;;;;;;4921608;28;46278;-57
2022/03/28 06:49:21;;;;;;;2.40;1.95;;;20.40;45.10;;;;;;4938510;28;45452;-55
2022/03/28 06:51:47;;;;;;;2.25;1.80;;;20.50;45.00;;;;;;4938585;28;45398;-59
2022/03/28 06:54:14;;;;;;;2.58;1.80;;;20.60;45.00;;;;;;4938144;28;45294;-58
2022/03/28 06:56:41;;;;;;;1.98;1.77;;;20.70;45.00;;;;;;4952808;28;45990;-58
2022/03/28 06:59:08;;;;;;;2.42;1.60;;;20.80;44.90;;;;;;4939281;28;45176;-57
2022/03/28 07:01:34;;;;;;;2.00;1.60;;;20.90;44.80;;;;;;4937422;28;45527;-57
2022/03/28 07:04:00;;;;;;;2.55;1.70;;;21.00;44.80;;;;;;4940423;28;45301;-56
2022/03/28 07:06:25;;;;;;;2.70;1.73;;;21.10;44.70;;;;;;4940404;28;46112;-58
2022/03/28 07:08:51;;;;;;;2.15;1.60;;;21.20;44.60;;;;;;4940771;28;45196;-61
2022/03/28 07:11:17;;;;;;;2.42;1.60;;;21.30;44.60;;;;;;4942671;28;45293;-54
2022/03/28 07:13:43;;;;;;;2.17;1.77;;;21.40;44.50;;;;;;4936642;28;45065;-58
2022/03/28 07:16:08;;;;;;;3.60;1.88;;;21.50;44.40;;;;;;4940624;28;45300;-56
2022/03/28 07:18:34;;;;;;;2.85;1.70;;;21.60;44.30;;;;;;4943291;28;44954;-58
2022/03/28 07:21:00;;;;;;;3.00;1.92;;;21.70;44.30;;;;;;4942526;28;44698;-60
2022/03/28 07:23:25;;;;;;;2.75;1.50;;;21.80;44.20;;;;;;4940727;28;45198;-56
2022/03/28 07:25:51;;;;;;;1.88;1.60;;;21.90;44.10;;;;;;4929657;28;47415;-56
2022/03/28 07:28:17;;;;;;;5.88;1.50;;;22.10;44.10;;;;;;4932731;28;45428;-59
2022/03/28 07:30:43;;;;;;;2.40;1.45;;;22.10;43.90;;;;;;4943520;28;45051;-56
2022/03/28 07:33:08;;;;;;;2.10;1.55;;;22.30;43.90;;;;;;4941519;28;44766;-55
2022/03/28 07:35:35;;;;;;;2.33;1.65;;;22.40;43.90;;;;;;4938117;28;45180;-61
2022/03/28 07:38:02;;;;;;;1.85;1.48;;;22.40;43.80;;;;;;4936592;28;45179;-59
2022/03/28 07:40:27;;;;;;;2.88;1.60;;;22.50;43.70;;;;;;4937615;28;45251;-59
2022/03/28 07:42:53;;;;;;;1.50;1.40;;;22.60;43.70;;;;;;4958061;28;45321;-59
2022/03/28 07:45:20;;;;;;;2.40;1.55;;;22.70;43.60;;;;;;4938795;28;46962;-57
2022/03/28 07:47:45;;;;;;;3.08;1.48;;;22.80;43.60;;;;;;4944061;28;45204;-59
2022/03/28 07:50:11;;;;;;;3.58;1.30;;;22.90;43.60;;;;;;4919788;28;45452;-57
2022/03/28 07:52:37;;;;;;;4.03;1.50;;;22.90;43.50;;;;;;4937227;28;45563;-56
2022/03/28 07:55:04;;;;;;;1.38;1.27;;;23.00;43.40;;;;;;4935518;28;46125;-59
2022/03/28 07:57:29;;;;;;;2.40;1.30;;;23.10;43.40;;;;;;4918748;28;44823;-58
2022/03/28 07:59:55;;;;;;;3.03;1.27;;;23.10;43.30;;;;;;4937277;28;45757;-60
2022/03/28 08:02:20;;;;;;;1.42;1.33;;;23.20;43.30;;;;;;4935893;28;45490;-59
2022/03/28 08:04:46;;;;;;;2.38;1.52;;;23.30;43.30;;;;;;4935516;28;46161;-59
2022/03/28 08:07:12;;;;;;;1.40;1.20;;;23.30;43.20;;;;;;4935968;28;45448;-58
2022/03/28 08:09:38;;;;;;;2.38;1.50;;;23.40;43.10;;;;;;4930977;28;45337;-59
2022/03/28 08:12:05;;;;;;;3.03;1.80;;;23.50;43.10;;;;;;4941700;28;45260;-60
2022/03/28 08:14:30;;;;;;;2.97;1.58;;;23.50;43.10;;;;;;4941232;28;46966;-59
2022/03/28 08:16:56;;;;;;;2.88;1.40;;;23.50;43.10;;;;;;4935987;28;45415;-59
2022/03/28 08:19:22;;;;;;;1.67;1.30;;;23.50;43.10;;;;;;4937786;28;44830;-60
2022/03/28 08:21:48;;;;;;;1.42;1.33;;;23.50;43.20;;;;;;4945437;28;45227;-58
2022/03/28 08:24:14;;;;;;;1.65;1.25;;;23.50;43.30;;;;;;4942326;28;46039;-60
2022/03/28 08:26:39;;;;;;;2.35;1.50;;;23.40;43.30;;;;;;4936495;28;45228;-60
2022/03/28 08:29:05;;;;;;;4.72;1.23;;;23.40;43.40;;;;;;4934154;28;45362;-60
2022/03/28 08:31:31;;;;;;;1.40;1.20;;;23.30;43.40;;;;;;4926879;28;45316;-58
2022/03/28 08:33:57;;;;;;;1.55;1.33;;;23.30;43.50;;;;;;4920098;28;47223;-60
2022/03/28 08:36:23;;;;;;;1.60;1.23;;;23.30;43.60;;;;;;4940024;28;45322;-59
2022/03/28 08:38:48;;;;;;;1.60;1.25;;;23.30;43.60;;;;;;4938523;28;45296;-58
2022/03/28 08:41:14;;;;;;;3.45;1.70;;;23.20;43.60;;;;;;4928698;28;45010;-58
2022/03/28 08:43:40;;;;;;;1.52;1.30;;;23.20;43.70;;;;;;4945679;28;44913;-61
2022/03/28 08:46:08;;;;;;;1.35;1.25;;;23.10;43.70;;;;;;4938529;28;45377;-59
2022/03/28 08:48:35;;;;;;;1.27;1.17;;;23.10;43.80;;;;;;4920402;28;45311;-59
2022/03/28 08:51:01;;;;;;;1.58;1.13;;;23.10;43.90;;;;;;4931444;28;44992;-59
2022/03/28 08:53:27;;;;;;;1.63;1.40;;;23.10;43.90;;;;;;4935968;28;47035;-58
2022/03/28 08:55:52;;;;;;;1.45;1.35;;;23.10;44.00;;;;;;4936303;28;45238;-59
2022/03/28 08:58:18;;;;;;;1.50;1.40;;;23.10;44.00;;;;;;4935984;28;44982;-57
2022/03/28 09:00:43;;;;;;;2.20;1.48;;;23.00;44.10;;;;;;4936681;28;45441;-60
2022/03/28 09:03:09;;;;;;;2.17;1.30;;;23.00;44.10;;;;;;4937854;28;46005;-61
2022/03/28 09:05:38;;;;;;;2.40;1.40;;;23.00;44.10;;;;;;4942362;28;44740;-59
2022/03/28 09:08:05;;;;;;;3.65;1.33;;;23.00;44.20;;;;;;4935238;28;44889;-56
2022/03/28 09:10:34;;;;;;;1.65;1.45;;;22.90;44.20;;;;;;4938724;28;45227;-59
2022/03/28 09:13:03;;;;;;;1.83;1.25;;;22.90;44.20;;;;;;4942800;28;45384;-60
2022/03/28 09:15:48;;;;;;;1.50;1.40;;;22.90;44.30;;;;;;4942940;28;45399;-59
2022/03/28 09:18:24;;;;;;;4.07;1.55;;;22.90;44.20;;;;;;4947687;28;45236;-61
2022/03/28 09:20:50;;;;;;;1.83;1.33;;;22.90;44.30;;;;;;4936216;28;45002;-59
2022/03/28 09:23:36;;;;;;;1.30;1.20;;;22.80;44.40;;;;;;4940505;28;46006;-58
2022/03/28 09:26:10;;;;;;;3.92;1.40;;;22.90;45.00;;;;;;4930456;28;45511;-55
2022/03/28 09:28:47;;;;;;;1.42;1.15;;;22.90;44.40;;;;;;4939684;28;45069;-59
2022/03/28 09:31:19;;;;;;;1.42;1.33;;;22.80;44.50;;;;;;4940085;28;45338;-57
2022/03/28 09:34:00;;;;;;;3.42;1.27;;;22.80;44.60;;;;;;4939253;28;45549;-58
2022/03/28 09:36:39;;;;;;;1.90;1.40;;;22.80;44.50;;;;;;4945097;28;44951;-57
2022/03/28 09:39:06;;;;;;;2.83;1.40;;;22.70;44.50;;;;;;4931048;28;45379;-59
2022/03/28 09:41:31;;;;;;;1.52;1.25;;;22.70;44.60;;;;;;4946983;28;45180;-59
2022/03/28 09:43:57;;;;;;;2.15;1.50;;;22.70;44.60;;;;;;4949277;28;46323;-60
2022/03/28 09:46:30;;;;;;;1.55;1.38;;;22.70;44.70;;;;;;4951123;28;45225;-56
2022/03/28 09:48:57;;;;;;;1.83;1.58;;;22.70;44.70;;;;;;4946628;28;45429;-59
2022/03/28 09:51:25;;;;;;;5.00;1.55;;;22.70;44.80;;;;;;4942573;28;45590;-58
2022/03/28 09:53:51;;;;;;;4.53;1.42;;;22.70;44.80;;;;;;4938613;28;45355;-60
2022/03/28 09:56:17;;;;;;;1.83;1.40;;;22.70;44.80;;;;;;4939767;28;44821;-58
2022/03/28 09:59:01;;;;;;;2.03;1.50;;;22.70;44.90;;;;;;4939413;28;45213;-58
2022/03/28 10:01:32;;;;;;;1.90;1.45;;;22.70;44.90;;;;;;4927238;28;45495;-59
2022/03/28 10:04:05;;;;;;;2.10;1.45;;;22.60;44.90;;;;;;4954320;28;46124;-55
2022/03/28 10:06:31;;;;;;;3.17;1.40;;;22.60;44.90;;;;;;4940023;28;45035;-58
2022/03/28 10:08:56;;;;;;;3.88;1.60;;;22.60;45.50;;;;;;4940428;28;44823;-58
2022/03/28 10:11:22;;;;;;;2.20;1.38;;;22.60;45.00;;;;;;4930337;28;44791;-60
2022/03/28 10:13:48;;;;;;;2.28;1.23;;;22.60;45.00;;;;;;4949855;28;45620;-58
2022/03/28 10:16:13;;;;;;;1.35;1.25;;;22.60;45.00;;;;;;4938998;28;45766;-59
2022/03/28 10:18:40;;;;;;;1.50;1.30;;;22.60;45.00;;;;;;4936031;28;45426;-57
2022/03/28 10:21:24;;;;;;;2.05;1.50;;;22.60;45.10;;;;;;4941610;28;45209;-59
2022/03/28 10:24:02;;;;;;;2.42;1.38;;;22.60;45.10;;;;;;4924334;28;47281;-57
2022/03/28 10:26:29;;;;;;;4.20;1.58;;;22.50;45.10;;;;;;4934873;28;45323;-56
2022/03/28 10:29:10;;;;;;;1.95;1.42;;;22.50;45.10;;;;;;4938089;28;45229;-56
2022/03/28 10:31:58;;;;;;;1.15;1.05;;;22.50;45.10;;;;;;4934020;28;45378;-57
2022/03/28 10:34:43;;;;;;;2.00;1.63;;;22.50;45.20;;;;;;4906537;28;47457;-57
2022/03/28 10:37:37;;;;;;;1.92;1.50;;;22.50;45.20;;;;;;4925582;28;47009;-60
2022/03/28 10:40:18;;;;;;;1.20;1.10;;;22.50;45.20;;;;;;4938201;28;44943;-60
2022/03/28 10:42:56;;;;;;;2.00;1.20;;;22.50;45.30;;;;;;4943602;28;45232;-59
2022/03/28 10:45:37;;;;;;;2.08;1.48;;;22.60;45.20;;;;;;4912878;28;45479;-58
2022/03/28 10:48:03;;;;;;;2.78;1.40;;;22.50;45.20;;;;;;4934487;28;46468;-61
2022/03/28 10:50:33;;;;;;;2.35;1.50;;;22.50;45.20;;;;;;4942108;28;45026;-59
2022/03/28 10:53:10;;;;;;;1.88;1.58;;;22.50;45.20;;;;;;4941267;28;45445;-57
2022/03/28 10:55:37;;;;;;;2.85;1.30;;;22.50;45.20;;;;;;4926928;28;45223;-60
2022/03/28 10:58:27;;;;;;;2.22;1.30;;;22.50;45.30;;;;;;4939801;28;45240;-59
2022/03/28 11:01:29;;;;;;;3.63;1.38;;;22.50;45.40;;;;;;4938694;28;45429;-57
2022/03/28 11:04:16;;;;;;;2.08;1.33;;;22.40;45.40;;;;;;4922237;28;45340;-61
2022/03/28 11:07:03;;;;;;;1.50;1.20;;;22.40;45.40;;;;;;4949590;28;46071;-55
2022/03/28 11:09:33;;;;;;;2.53;1.35;;;22.40;45.50;;;;;;4940350;28;44904;-59
2022/03/28 11:12:00;;;;;;;1.40;1.27;;;22.40;45.50;;;;;;4952884;28;44933;-61
2022/03/28 11:14:50;;;;;;;2.67;1.67;;;22.40;45.50;;;;;;4939498;28;45356;-61
2022/03/28 11:17:20;;;;;;;2.28;1.75;;;22.40;45.60;;;;;;4939265;28;45088;-60
2022/03/28 11:20:09;;;;;;;3.00;1.60;;;22.30;45.40;;;;;;4940772;28;45067;-60
2022/03/28 11:22:40;;;;;;;2.58;1.77;;;22.30;44.70;;;;;;4952612;28;45458;-56
2022/03/28 11:25:27;;;;;;;4.03;2.42;;;22.30;45.10;;;;;;4938842;28;45543;-59
2022/03/28 11:28:10;;;;;;;3.30;2.55;;;22.30;44.60;;;;;;4945663;28;45527;-60
2022/03/28 11:30:45;;;;;;;4.15;2.72;;;22.30;44.10;;;;;;4947185;28;45320;-55
2022/03/28 11:33:12;;;;;;;5.78;2.80;;;22.30;44.00;;;;;;4942373;28;46307;-58
2022/03/28 11:35:38;;;;;;;6.63;3.08;;;22.30;44.00;;;;;;4951762;28;45239;-59
2022/03/28 11:38:04;;;;;;;7.88;2.67;;;22.30;43.80;;;;;;4952430;28;46336;-57
2022/03/28 11:40:39;;;;;;;3.88;3.03;;;22.30;44.20;;;;;;4951666;28;45128;-54
2022/03/28 11:43:05;;;;;;;5.38;2.92;;;22.30;43.30;;;;;;4948578;28;45363;-59
2022/03/28 11:45:31;;;;;;;4.50;3.42;;;22.30;43.30;;;;;;4939606;28;45005;-56
2022/03/28 11:47:58;;;;;;;5.10;3.13;;;22.30;43.20;;;;;;4927249;28;46088;-56
2022/03/28 11:50:24;;;;;;;3.15;2.80;;;22.30;43.20;;;;;;4943843;28;45255;-55
2022/03/28 11:52:52;;;;;;;7.25;3.20;;;22.30;43.10;;;;;;4903676;28;45275;-58
2022/03/28 11:55:20;;;;;;;5.70;3.60;;;22.20;42.90;;;;;;4922389;28;45245;-57
2022/03/28 12:00:33;;;;;;;3.63;2.75;;;22.20;42.70;;;;;;4932970;28;45493;-60
2022/03/28 12:02:59;;;;;;;5.68;2.95;;;22.20;42.60;;;;;;4937303;28;45083;-59
2022/03/28 12:05:32;;;;;;;5.35;3.55;;;22.30;42.50;;;;;;4939455;28;45228;-56
2022/03/28 12:07:59;;;;;;;6.40;4.18;;;22.30;42.20;;;;;;4940677;28;45361;-52
2022/03/28 12:10:29;;;;;;;5.28;3.22;;;22.20;42.10;;;;;;4938515;28;45219;-54
2022/03/28 12:12:59;;;;;;;4.85;2.85;;;22.30;41.80;;;;;;4939390;28;45049;-56
2022/03/28 12:15:45;;;;;;;6.22;3.90;;;22.30;41.90;;;;;;4921969;28;45365;-54
2022/03/28 12:18:12;;;;;;;6.75;3.67;;;22.20;41.50;;;;;;4946151;28;46037;-58
2022/03/28 12:20:43;;;;;;;7.43;3.90;;;22.20;41.60;;;;;;4944009;28;45455;-53
2022/03/28 12:23:10;;;;;;;6.25;3.90;;;22.20;41.50;;;;;;4937535;28;44893;-58
2022/03/28 12:25:38;;;;;;;5.85;4.07;;;22.20;41.30;;;;;;4936899;28;45562;-55
2022/03/28 12:28:28;;;;;;;8.38;3.80;;;22.20;41.50;;;;;;4905935;28;45208;-58
2022/03/28 12:30:58;;;;;;;4.68;3.35;;;22.20;40.70;;;;;;4939073;28;45497;-61
2022/03/28 12:33:30;;;;;;;6.55;3.95;;;22.20;41.50;;;;;;4940178;28;44764;-60
2022/03/28 12:36:09;;;;;;;7.53;3.80;;;22.20;41.20;;;;;;4940267;28;45279;-59
2022/03/28 12:38:42;;;;;;;7.38;3.92;;;22.20;40.90;;;;;;4937636;28;46963;-54
2022/03/28 12:41:12;;;;;;;7.03;3.95;;;22.20;40.70;;;;;;4934642;28;45251;-56
2022/03/28 12:43:39;;;;;;;4.88;3.63;;;22.20;41.20;;;;;;4946486;28;45212;-58
2022/03/28 12:46:06;;;;;;;6.13;4.22;;;22.20;41.00;;;;;;4932826;28;45282;-60
2022/03/28 12:48:51;;;;;;;9.70;4.45;;;22.20;40.80;;;;;;4947345;28;47111;-55
2022/03/28 12:51:33;;;;;;;5.78;3.72;;;22.20;39.50;;;;;;4919927;28;44985;-55
2022/03/28 12:54:15;;;;;;;6.97;3.85;;;22.20;40.20;;;;;;4941455;28;45555;-61
2022/03/28 12:56:51;;;;;;;6.63;4.03;;;22.10;40.10;;;;;;4941448;28;45077;-55
2022/03/28 12:59:19;;;;;;;6.80;4.30;;;22.20;39.70;;;;;;4923998;28;47605;-59
2022/03/28 13:01:44;;;;;;;9.70;4.75;;;22.10;40.00;;;;;;4941794;28;44751;-59
2022/03/28 13:04:17;;;;;;;6.32;4.38;;;22.20;40.00;;;;;;4942548;28;45188;-61
2022/03/28 13:06:44;;;;;;;6.40;4.55;;;22.10;39.60;;;;;;4942639;28;45265;-56
2022/03/28 13:09:10;;;;;;;6.47;4.18;;;22.20;39.80;;;;;;4938232;28;46344;-56
2022/03/28 13:11:36;;;;;;;7.07;4.43;;;22.10;39.80;;;;;;4939927;28;45168;-58
2022/03/28 13:14:02;;;;;;;5.97;4.53;;;22.10;39.70;;;;;;4941538;28;44714;-59
2022/03/28 13:16:28;;;;;;;7.93;5.22;;;22.10;39.50;;;;;;4940891;28;45044;-57
2022/03/28 13:18:58;;;;;;;8.32;4.97;;;22.10;39.50;;;;;;4943091;28;45944;-55
2022/03/28 13:21:31;;;;;;;8.48;4.68;;;22.10;39.40;;;;;;4945995;28;45167;-55
2022/03/28 13:24:20;;;;;;;8.45;4.32;;;22.10;39.60;;;;;;4943823;28;45140;-54
2022/03/28 13:26:47;;;;;;;9.68;4.25;;;22.10;39.30;;;;;;4936639;28;45013;-54
2022/03/28 13:29:23;;;;;;;8.05;4.72;;;22.10;39.20;;;;;;4922912;28;45901;-56
2022/03/28 13:31:49;;;;;;;8.23;4.47;;;22.10;38.70;;;;;;4953531;28;45232;-56
2022/03/28 13:34:15;;;;;;;6.18;4.07;;;22.10;39.00;;;;;;4941385;28;45464;-59
2022/03/28 13:36:40;;;;;;;6.57;4.90;;;22.10;39.10;;;;;;4947495;28;45442;-54
2022/03/28 13:39:07;;;;;;;5.93;4.50;;;22.10;39.00;;;;;;4954901;28;46011;-59
2022/03/28 13:41:32;;;;;;;7.28;4.70;;;22.10;39.00;;;;;;4947607;28;45245;-51
2022/03/28 13:43:58;;;;;;;8.10;4.78;;;22.10;38.80;;;;;;4930893;28;45469;-52
2022/03/28 13:46:23;;;;;;;7.07;4.85;;;22.10;39.00;;;;;;4946809;28;45197;-56
2022/03/28 13:48:50;;;;;;;5.63;4.75;;;22.00;38.90;;;;;;4927514;28;46096;-58
2022/03/28 13:51:16;;;;;;;8.07;4.57;;;22.10;39.10;;;;;;4940645;28;45507;-55
2022/03/28 13:53:41;;;;;;;6.47;4.28;;;22.10;39.00;;;;;;4920632;28;45164;-60
2022/03/28 13:56:08;;;;;;;7.72;4.95;;;22.10;38.90;;;;;;4940969;28;45337;-55
2022/03/28 13:58:34;;;;;;;5.55;4.10;;;22.10;38.80;;;;;;4920388;28;45927;-56
2022/03/28 14:01:00;;;;;;;6.63;4.68;;;22.10;38.90;;;;;;4935106;28;45636;-54
2022/03/28 14:03:25;;;;;;;6.72;4.15;;;22.00;38.70;;;;;;4931613;28;45661;-55
2022/03/28 14:05:52;;;;;;;11.25;4.70;;;22.10;38.90;;;;;;4941196;28;45192;-56
2022/03/28 14:08:18;;;;;;;6.80;4.40;;;22.10;38.80;;;;;;4950465;28;46874;-53
2022/03/28 14:10:44;;;;;;;8.10;4.25;;;22.10;38.70;;;;;;4955536;28;45065;-55
2022/03/28 14:13:10;;;;;;;9.73;4.38;;;22.00;38.50;;;;;;4942559;28;44666;-56
2022/03/28 14:15:35;;;;;;;9.73;4.35;;;22.00;38.60;;;;;;4943927;28;45787;-58
2022/03/28 14:18:01;;;;;;;6.82;4.43;;;22.00;38.70;;;;;;4947446;28;47306;-63
2022/03/28 14:20:27;;;;;;;7.88;4.13;;;22.10;38.60;;;;;;4940495;28;44965;-58
2022/03/28 14:22:53;;;;;;;5.32;3.97;;;22.00;38.60;;;;;;4940045;28;44707;-58
2022/03/28 14:25:20;;;;;;;5.22;4.05;;;22.10;38.30;;;;;;4939476;28;45363;-51
2022/03/28 14:27:46;;;;;;;6.15;4.18;;;22.10;38.40;;;;;;4939735;28;47043;-55
2022/03/28 14:30:15;;;;;;;8.15;4.20;;;22.00;38.40;;;;;;4937963;28;44732;-52
2022/03/28 14:32:41;;;;;;;9.85;4.50;;;22.00;38.40;;;;;;4948555;28;44706;-54
2022/03/28 14:35:08;;;;;;;5.20;4.00;;;22.00;38.40;;;;;;4951281;28;45422;-54
2022/03/28 14:37:34;;;;;;;5.65;3.75;;;22.00;38.10;;;;;;4928163;28;46890;-52
2022/03/28 14:40:00;;;;;;;9.20;3.90;;;22.10;38.30;;;;;;4924175;28;45192;-54
2022/03/28 14:42:25;;;;;;;5.50;3.88;;;22.10;38.30;;;;;;4942928;28;44903;-52
2022/03/28 14:44:51;;;;;;;7.63;4.25;;;22.10;38.30;;;;;;4942274;28;44829;-52
2022/03/28 14:47:17;;;;;;;11.27;3.95;;;22.10;38.20;;;;;;4939383;28;46322;-52
2022/03/28 14:49:42;;;;;;;9.13;4.05;;;22.00;38.00;;;;;;4942573;28;44667;-63
2022/03/28 14:52:08;;;;;;;5.70;4.00;;;22.00;37.90;;;;;;4943064;28;45256;-52
2022/03/28 14:54:34;;;;;;;5.00;3.67;;;22.00;38.00;;;;;;4942124;28;45680;-56
2022/03/28 14:57:00;;;;;;;6.07;3.83;;;22.00;38.10;;;;;;4941621;28;46182;-51
2022/03/28 14:59:26;;;;;;;5.18;3.70;;;22.10;38.30;;;;;;4910160;28;45332;-54
2022/03/28 15:01:52;;;;;;;6.65;4.28;;;22.00;38.00;;;;;;4922854;28;45608;-51
2022/03/28 15:04:18;;;;;;;7.85;4.25;;;22.10;38.10;;;;;;4945292;28;45176;-55
2022/03/28 15:06:46;;;;;;;5.50;3.85;;;22.00;38.10;;;;;;4942803;28;46170;-53
2022/03/28 15:09:12;;;;;;;4.95;3.67;;;22.10;38.00;;;;;;4940932;28;45225;-54
2022/03/28 15:11:40;;;;;;;5.90;4.20;;;22.10;38.10;;;;;;4938510;28;45181;-54
2022/03/28 15:14:07;;;;;;;6.03;4.32;;;22.00;38.10;;;;;;4928398;28;45400;-52
2022/03/28 15:16:33;;;;;;;10.00;4.20;;;22.10;38.20;;;;;;4911604;28;46998;-59
2022/03/28 15:18:59;;;;;;;7.05;4.30;;;22.10;37.90;;;;;;4934086;28;44764;-53
2022/03/28 15:21:24;;;;;;;7.38;4.43;;;22.00;38.10;;;;;;4920557;28;45396;-56
2022/03/28 15:23:50;;;;;;;6.82;4.43;;;22.00;38.20;;;;;;4938318;28;45175;-51
2022/03/28 15:26:16;;;;;;;6.25;3.90;;;22.00;38.20;;;;;;4921518;28;47009;-63
2022/03/28 15:28:41;;;;;;;5.30;3.80;;;22.00;38.10;;;;;;4938497;28;45883;-52
2022/03/28 15:31:27;;;;;;;6.43;4.15;;;22.00;38.20;;;;;;4939179;28;45073;-56
2022/03/28 15:34:12;;;;;;;6.25;3.45;;;22.00;37.40;;;;;;4934640;28;45695;-64
2022/03/28 15:36:45;;;;;;;6.00;4.30;;;22.00;37.90;;;;;;4946270;28;46254;-61
2022/03/28 15:39:12;;;;;;;5.55;3.85;;;22.00;38.10;;;;;;4934062;28;45642;-58
2022/03/28 15:41:38;;;;;;;5.75;3.92;;;22.00;38.30;;;;;;4937508;28;45733;-65
2022/03/28 15:44:04;;;;;;;5.35;3.63;;;22.00;38.30;;;;;;4917738;28;44835;-65
2022/03/28 15:46:30;;;;;;;8.98;3.80;;;22.00;38.50;;;;;;4938703;28;45917;-57
2022/03/28 15:48:56;;;;;;;5.88;3.83;;;22.00;38.50;;;;;;4921823;28;46023;-65
2022/03/28 15:51:22;;;;;;;7.10;4.28;;;22.00;38.10;;;;;;4939984;28;45137;-61
2022/03/28 15:53:48;;;;;;;6.72;4.13;;;22.00;38.10;;;;;;4922452;28;45536;-61
2022/03/28 15:56:14;;;;;;;9.18;4.18;;;22.00;38.40;;;;;;4942255;28;46087;-58